Time;durP1;ratioP1;P1;durP2;ratioP2;P2;SDS_P1;SDS_P2;PMS_P1;PMS_P2;Temp;Humidity;BMP_temperature;BMP_pressure;BME280_temperature;BME280_humidity;BME280_pressure;Samples;Min_cycle;Max_cycle;Signal;HPM_P1;HPM_P2
2021/04/10 00:00:22;;;;;;;0.55;0.40;;;;;;;22.52;23.35;96235.41;5066193;28;20054;-64
2021/04/10 00:02:49;;;;;;;0.70;0.50;;;;;;;22.50;23.22;96248.53;5064762;28;20464;-63
2021/04/10 00:05:15;;;;;;;1.25;0.60;;;;;;;22.48;23.29;96234.38;5065320;28;20127;-63
2021/04/10 00:07:41;;;;;;;1.25;0.40;;;;;;;22.45;23.19;96235.81;5065440;28;20048;-60
2021/04/10 00:10:07;;;;;;;1.02;0.68;;;;;;;22.44;23.45;96242.38;5065070;28;20121;-64
2021/04/10 00:12:33;;;;;;;1.98;0.75;;;;;;;22.43;23.22;96235.28;5065254;28;20080;-64
2021/04/10 00:14:59;;;;;;;1.02;0.60;;;;;;;22.41;23.50;96232.06;5065793;28;20672;-63
2021/04/10 00:17:24;;;;;;;1.27;0.50;;;;;;;22.40;23.25;96218.69;5064698;28;20147;-59
2021/04/10 00:19:50;;;;;;;0.82;0.60;;;;;;;22.39;23.28;96217.91;5063770;28;20105;-59
2021/04/10 00:22:15;;;;;;;0.90;0.70;;;;;;;22.37;23.21;96216.59;5065551;28;20535;-62
2021/04/10 00:24:41;;;;;;;0.82;0.50;;;;;;;22.37;23.18;96206.47;5064715;28;20484;-56
2021/04/10 00:27:07;;;;;;;0.45;0.40;;;;;;;22.36;23.32;96213.03;5065221;28;20045;-60
2021/04/10 00:29:32;;;;;;;1.23;0.40;;;;;;;22.37;23.36;96216.59;5065235;28;20067;-58
2021/04/10 00:31:58;;;;;;;3.05;0.80;;;;;;;22.35;23.43;96207.88;5065455;28;20067;-62
2021/04/10 00:34:23;;;;;;;0.45;0.45;;;;;;;22.35;23.17;96216.06;5065602;28;20512;-62
2021/04/10 00:36:49;;;;;;;2.83;0.52;;;;;;;22.34;23.29;96209.81;5065198;28;20048;-61
2021/04/10 00:39:14;;;;;;;0.75;0.75;;;;;;;22.33;23.47;96210.91;5064445;28;20056;-62
2021/04/10 00:41:40;;;;;;;1.75;0.63;;;;;;;22.33;23.28;96201.91;5065269;28;20052;-57
2021/04/10 00:44:06;;;;;;;0.75;0.50;;;;;;;22.33;23.24;96210.91;5064812;28;20070;-57
2021/04/10 00:46:31;;;;;;;0.77;0.70;;;;;;;22.32;23.24;96201.13;5065372;28;20052;-56
2021/04/10 00:48:57;;;;;;;0.60;0.60;;;;;;;22.33;23.35;96207.38;5066082;28;20048;-65
2021/04/10 00:51:23;;;;;;;0.70;0.50;;;;;;;22.33;23.43;96205.44;5065487;28;20392;-58
2021/04/10 00:53:49;;;;;;;1.10;0.80;;;;;;;22.31;23.11;96204.94;5064571;28;20063;-56
2021/04/10 00:56:14;;;;;;;0.90;0.55;;;;;;;22.32;23.24;96206.56;5064141;28;20056;-56
2021/04/10 00:58:40;;;;;;;0.82;0.80;;;;;;;22.33;23.32;96210.09;5050624;28;20523;-57
2021/04/10 01:01:06;;;;;;;1.67;0.77;;;;;;;22.32;23.26;96209.31;5067455;28;20056;-55
2021/04/10 01:03:32;;;;;;;1.20;0.90;;;;;;;22.32;23.37;96201.13;5068997;28;20068;-55
2021/04/10 01:05:57;;;;;;;2.10;0.55;;;;;;;22.34;23.39;96211.72;5069578;28;20058;-67
2021/04/10 01:08:23;;;;;;;1.48;0.90;;;;;;;22.34;23.33;96208.97;5069384;28;20159;-54
2021/04/10 01:10:49;;;;;;;1.38;1.25;;;;;;;22.34;23.28;96204.34;5068660;28;20458;-56
2021/04/10 01:13:47;;;;;;;1.33;0.85;;;;;;;22.33;23.40;96201.91;5067674;28;20072;-53
2021/04/10 01:16:21;;;;;;;1.55;0.70;;;;;;;22.34;23.19;96201.63;5067449;28;20154;-62
2021/04/10 01:18:51;;;;;;;0.77;0.67;;;;;;;22.35;23.26;96202.44;5051773;28;20052;-63
2021/04/10 01:21:43;;;;;;;0.85;0.70;;;;;;;22.33;23.35;96205.44;5067316;28;20286;-62
2021/04/10 01:24:40;;;;;;;0.73;0.60;;;;;;;22.34;23.21;96204.34;5066748;28;20048;-64
2021/04/10 01:27:13;;;;;;;1.70;0.65;;;;;;;22.34;23.22;96196.16;5066525;28;20052;-64
2021/04/10 01:29:52;;;;;;;1.42;0.70;;;;;;;22.33;23.33;96193.72;5067795;28;20055;-64
2021/04/10 01:32:18;;;;;;;3.50;0.73;;;;;;;22.35;23.49;96199.69;5064956;28;20087;-60
2021/04/10 01:34:47;;;;;;;1.00;0.85;;;;;;;22.35;23.32;96191.50;5046121;28;20077;-63
2021/04/10 01:37:18;;;;;;;3.85;1.00;;;;;;;22.35;23.36;96196.97;5066641;28;20097;-64
2021/04/10 01:39:44;;;;;;;0.70;0.70;;;;;;;22.35;23.22;96194.25;5066721;28;20139;-62
2021/04/10 01:42:10;;;;;;;1.95;0.88;;;;;;;22.36;23.26;96204.88;5066502;28;20163;-63
2021/04/10 01:44:36;;;;;;;1.02;0.82;;;;;;;22.35;23.33;96197.78;5066594;28;20049;-62
2021/04/10 01:47:02;;;;;;;1.63;0.80;;;;;;;22.35;23.13;96192.31;5050077;28;20055;-63
2021/04/10 01:49:28;;;;;;;2.22;0.88;;;;;;;22.36;23.25;96191.22;5050070;28;20052;-64
2021/04/10 01:51:53;;;;;;;2.30;0.60;;;;;;;22.35;23.48;96189.59;5049499;28;20095;-64
2021/04/10 01:54:19;;;;;;;1.38;0.68;;;;;;;22.36;23.27;96184.94;5066378;28;20143;-64
2021/04/10 01:56:45;;;;;;;2.08;1.05;;;;;;;22.35;23.10;96172.41;5064789;28;20048;-63
2021/04/10 01:59:13;;;;;;;2.00;0.85;;;;;;;22.36;23.25;96177.56;5051148;28;20129;-63
2021/04/10 02:01:38;;;;;;;1.85;0.95;;;;;;;22.36;23.28;96165.81;5051857;28;20449;-64
2021/04/10 02:04:04;;;;;;;2.88;1.13;;;;;;;22.36;23.08;96166.66;5045613;28;20059;-64
2021/04/10 02:06:30;;;;;;;1.75;1.00;;;;;;;22.36;23.27;96165.81;5063195;28;20057;-63
2021/04/10 02:08:55;;;;;;;4.28;1.33;;;;;;;22.38;23.00;96163.59;5046294;28;20056;-63
2021/04/10 02:11:21;;;;;;;1.23;0.82;;;;;;;22.37;23.22;96160.06;5078947;28;20558;-63
2021/04/10 02:13:47;;;;;;;2.42;1.38;;;;;;;22.37;23.20;96165.53;5067470;28;20059;-62
2021/04/10 02:16:13;;;;;;;3.83;1.13;;;;;;;22.37;22.97;96153.81;5082946;28;20117;-63
2021/04/10 02:18:38;;;;;;;2.97;0.93;;;;;;;22.37;23.06;96151.09;5067400;28;20083;-63
2021/04/10 02:21:09;;;;;;;1.98;1.10;;;;;;;22.37;23.18;96151.88;5066885;28;20080;-64
2021/04/10 02:23:38;;;;;;;2.20;0.68;;;;;;;22.37;23.01;96156.53;5065671;28;20553;-64
2021/04/10 02:26:04;;;;;;;1.98;0.90;;;;;;;22.37;23.04;96151.88;5066398;28;20415;-63
2021/04/10 02:28:29;;;;;;;1.42;0.85;;;;;;;22.37;23.04;96151.88;5067713;28;20076;-60
2021/04/10 02:30:57;;;;;;;2.22;1.10;;;;;;;22.37;23.13;96145.63;5066300;28;20071;-63
2021/04/10 02:33:52;;;;;;;1.88;1.02;;;;;;;22.35;23.13;96135.00;5066351;28;20060;-63
2021/04/10 02:36:20;;;;;;;1.55;0.90;;;;;;;22.36;23.21;96133.09;5049428;28;20048;-64
2021/04/10 02:38:46;;;;;;;2.95;1.00;;;;;;;22.35;23.01;96128.75;5065929;28;20090;-63
2021/04/10 02:41:22;;;;;;;1.30;0.80;;;;;;;22.33;23.03;96126.31;5065694;28;20041;-64
2021/04/10 02:43:55;;;;;;;1.95;1.10;;;;;;;22.33;22.95;96117.31;5065720;28;20052;-62
2021/04/10 02:46:21;;;;;;;1.90;0.70;;;;;;;22.32;23.23;96115.69;5048785;28;20076;-63
2021/04/10 02:48:58;;;;;;;0.93;0.55;;;;;;;22.31;23.01;96114.09;5048118;28;20055;-65
2021/04/10 02:51:25;;;;;;;1.42;0.63;;;;;;;22.30;23.21;96113.28;5064523;28;20063;-64
2021/04/10 02:53:51;;;;;;;0.73;0.70;;;;;;;22.29;23.17;96110.84;5047997;28;20698;-64
2021/04/10 02:56:16;;;;;;;1.60;0.85;;;;;;;22.28;23.23;96115.50;5064819;28;20053;-64
2021/04/10 02:58:42;;;;;;;2.75;0.93;;;;;;;22.28;23.01;96117.44;5081788;28;20145;-63
2021/04/10 03:01:08;;;;;;;0.60;0.60;;;;;;;22.26;23.18;96109.53;5066502;28;20135;-64
2021/04/10 03:03:34;;;;;;;2.85;0.95;;;;;;;22.25;23.10;96106.00;5081664;28;20052;-66
2021/04/10 03:06:02;;;;;;;2.08;1.00;;;;;;;22.22;23.19;96105.78;5065247;28;20063;-58
2021/04/10 03:08:28;;;;;;;2.15;1.35;;;;;;;22.21;23.26;96110.41;5081998;28;20133;-63
2021/04/10 03:10:54;;;;;;;1.05;0.82;;;;;;;22.21;23.02;96101.41;5064958;28;20591;-63
2021/04/10 03:13:19;;;;;;;1.52;0.80;;;;;;;22.20;23.03;96097.88;5065981;28;20044;-63
2021/04/10 03:15:45;;;;;;;2.05;0.68;;;;;;;22.18;23.19;96100.09;5065758;28;20053;-64
2021/04/10 03:18:11;;;;;;;2.13;0.65;;;;;;;22.17;23.20;96097.66;5069094;28;20064;-62
2021/04/10 03:20:37;;;;;;;1.90;0.80;;;;;;;22.15;23.16;96095.25;5074830;28;20094;-64
2021/04/10 03:23:03;;;;;;;1.13;0.60;;;;;;;22.14;23.23;96087.38;5093074;28;20559;-64
2021/04/10 03:25:29;;;;;;;1.92;0.75;;;;;;;22.13;23.20;96081.09;5077589;28;20054;-61
2021/04/10 03:27:55;;;;;;;1.73;0.77;;;;;;;22.11;23.12;96083.31;5075587;28;20056;-62
2021/04/10 03:30:21;;;;;;;0.75;0.60;;;;;;;22.10;23.01;96075.44;5074276;28;20133;-64
2021/04/10 03:32:47;;;;;;;1.45;0.90;;;;;;;22.08;23.16;96075.72;5074873;28;20048;-64
2021/04/10 03:35:13;;;;;;;1.05;0.90;;;;;;;22.06;23.04;96070.56;5075523;28;20846;-63
2021/04/10 03:37:39;;;;;;;0.65;0.60;;;;;;;22.04;23.09;96061.91;5076683;28;20520;-65
2021/04/10 03:40:06;;;;;;;0.60;0.52;;;;;;;22.04;23.28;96063.81;5073621;28;20102;-64
2021/04/10 03:42:37;;;;;;;1.17;0.80;;;;;;;22.01;22.99;96056.25;5074802;28;20392;-64
2021/04/10 03:45:04;;;;;;;1.13;0.50;;;;;;;21.99;23.24;96053.00;5075298;28;20062;-63
2021/04/10 03:47:30;;;;;;;1.75;0.70;;;;;;;21.98;23.08;96054.09;5074780;28;20512;-63
2021/04/10 03:49:56;;;;;;;0.60;0.60;;;;;;;21.96;23.06;96051.69;5075024;28;20056;-63
2021/04/10 03:54:56;;;;;;;1.27;0.55;;;;;;;21.91;23.33;96046.31;5446332;23;20073;-60
2021/04/10 03:57:22;;;;;;;1.42;1.00;;;;;;;21.90;23.21;96041.97;5005571;28;20081;-60
2021/04/10 03:59:48;;;;;;;1.35;0.60;;;;;;;21.88;23.10;96036.03;4972415;28;20085;-60
2021/04/10 04:02:14;;;;;;;1.10;0.57;;;;;;;21.86;23.33;96032.78;4985542;28;20428;-60
2021/04/10 04:04:39;;;;;;;0.60;0.50;;;;;;;21.84;23.14;96029.56;5005250;28;20513;-60
2021/04/10 04:07:05;;;;;;;0.60;0.47;;;;;;;21.82;23.20;96031.78;4987956;28;20108;-60
2021/04/10 04:09:30;;;;;;;0.70;0.70;;;;;;;21.78;23.20;96025.28;4989048;28;20523;-61
2021/04/10 04:11:56;;;;;;;0.70;0.60;;;;;;;21.78;23.33;96030.75;4988709;28;20104;-60
2021/04/10 04:14:22;;;;;;;1.25;0.70;;;;;;;21.75;23.30;96029.44;5005596;28;20092;-60
2021/04/10 04:16:48;;;;;;;0.65;0.60;;;;;;;21.73;23.13;96017.19;5005952;28;20046;-60
2021/04/10 04:19:15;;;;;;;0.47;0.47;;;;;;;21.71;23.15;96022.97;5006237;28;20061;-60
2021/04/10 04:21:41;;;;;;;0.45;0.45;;;;;;;21.69;23.23;96025.19;5005846;28;20046;-60
2021/04/10 04:24:07;;;;;;;0.60;0.60;;;;;;;21.68;23.36;96025.47;5005382;28;20061;-60
2021/04/10 04:26:33;;;;;;;1.85;0.50;;;;;;;21.65;23.02;96026.88;4988944;28;20048;-59
2021/04/10 04:28:58;;;;;;;0.80;0.70;;;;;;;21.64;23.23;96026.06;5005947;28;20455;-61
2021/04/10 04:31:24;;;;;;;1.23;0.55;;;;;;;21.61;23.29;96017.69;5002204;28;20078;-59
2021/04/10 04:33:49;;;;;;;0.38;0.38;;;;;;;21.60;23.76;96018.78;5009439;28;20082;-60
2021/04/10 04:36:15;;;;;;;0.30;0.30;;;;;;;21.57;23.19;96022.13;5009483;28;20076;-58
2021/04/10 04:38:40;;;;;;;0.60;0.60;;;;;;;21.55;23.40;96018.88;5008357;28;20041;-61
2021/04/10 04:41:06;;;;;;;0.57;0.40;;;;;;;21.54;23.36;96022.69;4991319;28;20081;-61
2021/04/10 04:43:31;;;;;;;0.70;0.50;;;;;;;21.52;23.27;96022.19;5009249;28;20443;-57
2021/04/10 04:45:57;;;;;;;1.15;0.40;;;;;;;21.48;23.33;96016.56;5009493;28;20056;-61
2021/04/10 04:48:23;;;;;;;0.60;0.55;;;;;;;21.47;23.33;96022.28;5009380;28;20065;-61
2021/04/10 04:50:48;;;;;;;0.75;0.60;;;;;;;21.44;23.25;96021.78;5009167;28;20093;-60
2021/04/10 04:53:14;;;;;;;0.43;0.40;;;;;;;21.41;23.48;96025.06;4991085;28;20061;-61
2021/04/10 04:55:40;;;;;;;0.77;0.50;;;;;;;21.38;23.42;96022.94;5008540;28;20095;-61
2021/04/10 04:58:06;;;;;;;0.45;0.45;;;;;;;21.35;23.40;96015.34;5009713;28;20041;-60
2021/04/10 05:00:31;;;;;;;0.93;0.52;;;;;;;21.35;23.49;96014.53;5010002;28;20057;-55
2021/04/10 05:02:57;;;;;;;1.30;0.40;;;;;;;21.32;23.36;96017.88;5009410;28;20504;-58
2021/04/10 05:05:23;;;;;;;0.95;0.95;;;;;;;21.30;23.37;96020.88;4990712;28;20076;-61
2021/04/10 05:07:48;;;;;;;0.70;0.50;;;;;;;21.29;23.39;96027.44;4991252;28;20394;-61
2021/04/10 05:10:14;;;;;;;0.77;0.63;;;;;;;21.26;23.45;96031.56;5009015;28;20050;-60
2021/04/10 05:12:39;;;;;;;0.47;0.45;;;;;;;21.25;23.46;96029.16;5008475;28;20053;-60
2021/04/10 05:15:06;;;;;;;0.63;0.40;;;;;;;21.23;23.51;96034.91;5007996;28;20085;-60
2021/04/10 05:17:32;;;;;;;1.05;0.45;;;;;;;21.22;23.39;96043.34;5009717;28;20053;-62
2021/04/10 05:19:58;;;;;;;1.10;0.57;;;;;;;21.20;23.30;96040.91;5009096;28;20084;-60
2021/04/10 05:22:23;;;;;;;0.40;0.40;;;;;;;21.18;23.54;96048.56;4990431;28;20492;-61
2021/04/10 05:24:49;;;;;;;0.57;0.57;;;;;;;21.16;23.32;96039.09;5009087;28;20110;-60
2021/04/10 05:27:14;;;;;;;0.55;0.55;;;;;;;21.13;23.32;96045.94;5008222;28;20081;-60
2021/04/10 05:29:40;;;;;;;0.55;0.55;;;;;;;21.12;23.55;96046.22;5008557;28;20517;-59
2021/04/10 05:32:06;;;;;;;1.20;0.32;;;;;;;21.10;23.42;96040.25;5008189;28;20119;-61
2021/04/10 05:34:31;;;;;;;0.45;0.45;;;;;;;21.08;23.38;96046.00;5009235;28;20497;-61
2021/04/10 05:36:57;;;;;;;0.90;0.50;;;;;;;21.05;23.52;96041.97;5007452;28;20045;-61
2021/04/10 05:39:22;;;;;;;1.58;0.57;;;;;;;21.04;23.50;96043.06;5008273;28;20488;-60
2021/04/10 05:41:48;;;;;;;2.78;1.10;;;;;;;21.00;23.60;96025.72;5008332;28;20057;-60
2021/04/10 05:44:13;;;;;;;2.60;1.27;;;;;;;20.98;23.76;96033.38;5007654;28;20088;-60
2021/04/10 05:46:39;;;;;;;2.95;1.42;;;;;;;20.96;23.82;96032.03;5007768;28;20069;-60
2021/04/10 05:49:05;;;;;;;2.08;1.08;;;;;;;20.95;23.88;96035.84;5007751;28;20572;-60
2021/04/10 05:51:31;;;;;;;1.25;0.85;;;;;;;20.92;23.90;96034.53;5007612;28;20077;-59
2021/04/10 05:53:56;;;;;;;3.67;1.65;;;;;;;20.92;23.87;96037.25;5007449;28;20535;-60
2021/04/10 05:56:22;;;;;;;4.80;0.98;;;;;;;20.91;23.92;96041.06;5006326;28;20380;-60
2021/04/10 05:58:51;;;;;;;1.38;0.80;;;;;;;20.91;23.88;96043.00;5007438;28;20093;-56
2021/04/10 06:01:17;;;;;;;1.00;0.93;;;;;;;20.90;23.97;96035.94;5005220;28;20069;-58
2021/04/10 06:03:43;;;;;;;3.17;1.02;;;;;;;20.90;24.03;96033.22;4987871;28;20061;-60
2021/04/10 06:06:10;;;;;;;2.28;0.70;;;;;;;20.90;24.05;96039.47;5007234;28;20073;-61
2021/04/10 06:08:36;;;;;;;0.50;0.50;;;;;;;20.90;24.02;96033.22;4989800;28;20050;-61
2021/04/10 06:11:02;;;;;;;0.75;0.75;;;;;;;20.90;23.92;96034.03;5007514;28;20099;-60
2021/04/10 06:13:28;;;;;;;3.10;0.80;;;;;;;20.90;24.07;96034.03;5007431;28;20058;-59
2021/04/10 06:15:53;;;;;;;0.75;0.73;;;;;;;20.91;24.21;96034.81;4996829;28;20137;-60
2021/04/10 06:18:19;;;;;;;3.33;0.95;;;;;;;20.93;24.02;96040.78;4971758;28;20062;-61
2021/04/10 06:20:44;;;;;;;2.38;0.80;;;;;;;20.95;24.06;96042.09;4987629;28;20145;-61
2021/04/10 06:23:10;;;;;;;0.80;0.80;;;;;;;20.99;23.99;96047.78;4998649;28;20512;-60
2021/04/10 06:25:35;;;;;;;1.00;0.90;;;;;;;21.02;23.84;96045.28;5005496;28;20089;-61
2021/04/10 06:28:03;;;;;;;4.18;3.72;;;;;;;21.06;23.93;96040.03;4989747;28;20097;-60
2021/04/10 06:30:29;;;;;;;10.82;9.73;;;;;;;21.11;23.99;96037.25;4995774;28;20408;-61
2021/04/10 06:32:54;;;;;;;7.75;7.03;;;;;;;21.16;23.90;96034.44;4989019;28;20058;-61
2021/04/10 06:35:20;;;;;;;5.10;4.55;;;;;;;21.23;23.89;96036.81;4990689;28;20451;-59
2021/04/10 06:37:46;;;;;;;5.35;4.07;;;;;;;21.28;23.63;96034.00;4987637;28;20133;-60
2021/04/10 06:40:12;;;;;;;4.38;3.22;;;;;;;21.34;23.75;96032.81;4987965;28;20442;-61
2021/04/10 06:42:37;;;;;;;3.38;3.08;;;;;;;21.37;23.72;96026.75;4987639;28;20456;-61
2021/04/10 06:45:04;;;;;;;3.65;3.35;;;;;;;21.43;23.75;96025.59;4987593;28;20441;-62
2021/04/10 06:47:30;;;;;;;3.50;3.20;;;;;;;21.49;23.63;96026.31;4988741;28;20054;-60
2021/04/10 06:49:57;;;;;;;3.70;2.50;;;;;;;21.55;23.71;96024.34;4956671;28;20065;-60
2021/04/10 06:52:22;;;;;;;3.97;2.70;;;;;;;21.60;23.50;96022.31;4973660;28;20140;-61
2021/04/10 06:55:00;;;;;;;3.83;2.60;;;;;;;21.64;23.39;96034.22;4988999;28;20195;-60
2021/04/10 06:57:27;;;;;;;3.00;2.55;;;;;;;21.68;23.52;96036.38;4990211;28;20062;-61
2021/04/10 06:59:59;;;;;;;2.58;2.38;;;;;;;21.70;23.47;96032.25;5007149;28;20445;-61
2021/04/10 07:02:25;;;;;;;2.40;2.20;;;;;;;21.77;23.29;96045.47;4984577;28;20086;-64
2021/04/10 07:04:50;;;;;;;5.13;2.30;;;;;;;21.82;23.68;96034.50;4969517;28;20082;-61
2021/04/10 07:07:16;;;;;;;3.97;2.00;;;;;;;21.86;23.56;96030.06;4953496;28;20101;-60
2021/04/10 07:09:41;;;;;;;4.60;2.15;;;;;;;21.91;23.71;96029.16;4987021;28;20053;-61
2021/04/10 07:12:08;;;;;;;4.95;2.00;;;;;;;21.94;23.75;96032.09;4953530;28;20081;-61
2021/04/10 07:14:34;;;;;;;2.67;2.10;;;;;;;21.99;24.01;96026.53;4969969;28;20081;-56
2021/04/10 07:16:59;;;;;;;4.95;1.92;;;;;;;22.01;23.95;96029.78;4971354;28;20504;-60
2021/04/10 07:19:26;;;;;;;2.50;1.88;;;;;;;22.05;23.99;96024.53;5003858;28;20080;-60
2021/04/10 07:22:14;;;;;;;3.08;2.25;;;;;;;22.08;23.93;96020.38;5007226;28;20092;-60
2021/04/10 07:24:47;;;;;;;3.30;2.15;;;;;;;22.11;23.91;96011.56;5004949;28;20069;-60
2021/04/10 07:27:20;;;;;;;4.97;2.00;;;;;;;22.10;24.07;96012.69;5005578;28;20054;-60
2021/04/10 07:29:47;;;;;;;2.50;1.70;;;;;;;22.16;23.90;96025.13;5006256;28;20050;-55
2021/04/10 07:32:33;;;;;;;1.92;1.65;;;;;;;22.17;24.07;96021.28;5005723;28;20500;-59
2021/04/10 07:35:03;;;;;;;3.95;1.90;;;;;;;22.19;23.67;96019.06;5006856;28;20058;-57
2021/04/10 07:37:42;;;;;;;2.08;1.60;;;;;;;22.17;24.08;96015.81;4983075;28;20045;-58
2021/04/10 07:40:09;;;;;;;1.88;1.30;;;;;;;22.22;24.06;96018.47;4988146;28;20046;-60
2021/04/10 07:42:36;;;;;;;3.50;1.58;;;;;;;22.23;23.85;96025.56;5005874;28;20442;-60
2021/04/10 07:45:03;;;;;;;2.50;1.42;;;;;;;22.23;23.84;96020.94;5006724;28;20081;-60
2021/04/10 07:47:33;;;;;;;3.38;1.52;;;;;;;22.25;23.98;96021.44;5007318;28;20038;-60
2021/04/10 07:50:26;;;;;;;2.42;1.92;;;;;;;22.26;23.94;96022.25;5006241;28;20069;-59
2021/04/10 07:52:52;;;;;;;4.40;2.80;;;;;;;22.26;23.68;96020.31;5004892;28;20110;-59
2021/04/10 07:55:40;;;;;;;2.10;2.00;;;;;;;22.25;23.68;96029.63;4988405;28;20049;-60
2021/04/10 07:58:17;;;;;;;2.85;1.63;;;;;;;22.28;23.82;96033.66;5004925;28;20081;-60
2021/04/10 08:00:43;;;;;;;5.65;2.00;;;;;;;22.29;23.89;96024.34;5004712;28;20057;-59
2021/04/10 08:03:23;;;;;;;3.97;1.55;;;;;;;22.30;23.96;96022.44;4987188;28;20153;-57
2021/04/10 08:05:48;;;;;;;1.55;1.30;;;;;;;22.33;24.00;96027.28;5003686;28;20081;-56
2021/04/10 08:08:18;;;;;;;8.35;2.42;;;;;;;22.33;24.11;96025.34;5008197;28;20069;-60
2021/04/10 08:10:45;;;;;;;8.32;1.95;;;;;;;22.36;23.85;96032.13;5010159;28;20060;-60
2021/04/10 08:13:10;;;;;;;10.48;2.38;;;;;;;22.35;24.03;96030.53;4992573;28;20054;-59
2021/04/10 08:15:36;;;;;;;6.78;2.20;;;;;;;22.41;24.07;96032.84;5009508;28;20568;-60
2021/04/10 08:18:02;;;;;;;25.02;14.82;;;;;;;22.44;24.30;96034.13;5009168;28;20100;-60
2021/04/10 08:20:29;;;;;;;20.98;12.32;;;;;;;22.45;24.14;96028.38;4974819;28;20456;-60
2021/04/10 08:23:18;;;;;;;16.42;8.75;;;;;;;22.47;24.27;96030.81;5009133;28;20204;-59
2021/04/10 08:25:44;;;;;;;16.15;8.25;;;;;;;22.50;24.15;96026.66;5008496;28;20056;-59
2021/04/10 08:28:09;;;;;;;16.30;7.22;;;;;;;22.53;23.99;96032.34;4978575;28;20054;-61
2021/04/10 08:30:35;;;;;;;11.30;6.20;;;;;;;22.55;24.07;96027.38;4975085;28;20184;-55
2021/04/10 08:33:00;;;;;;;11.25;5.50;;;;;;;22.57;23.95;96030.59;5009811;28;20085;-57
2021/04/10 08:35:26;;;;;;;13.20;5.72;;;;;;;22.60;24.01;96029.19;5008802;28;20642;-57
2021/04/10 08:38:01;;;;;;;13.75;6.75;;;;;;;22.61;23.80;96031.63;4996356;28;20436;-58
2021/04/10 08:40:27;;;;;;;9.30;5.72;;;;;;;22.65;23.93;96037.25;4989577;28;20080;-56
2021/04/10 08:42:57;;;;;;;9.23;5.30;;;;;;;22.67;24.10;96037.75;4989808;28;20568;-56
2021/04/10 08:45:33;;;;;;;11.73;5.32;;;;;;;22.65;23.73;96049.00;4989765;28;20297;-57
2021/04/10 08:48:03;;;;;;;10.40;4.50;;;;;;;22.67;23.63;96040.47;4990668;28;20062;-57
2021/04/10 08:50:30;;;;;;;9.35;5.47;;;;;;;22.69;23.61;96048.38;4990512;28;20050;-57
2021/04/10 08:52:55;;;;;;;9.15;4.45;;;;;;;22.69;23.80;96049.19;4972287;28;20100;-57
2021/04/10 08:55:21;;;;;;;9.00;4.40;;;;;;;22.73;23.83;96049.38;4989286;28;20046;-57
2021/04/10 08:57:47;;;;;;;9.02;4.70;;;;;;;22.74;23.29;96062.75;4987236;28;20141;-57
2021/04/10 09:00:23;;;;;;;9.85;4.50;;;;;;;22.76;23.53;96059.72;4971324;28;20112;-57
2021/04/10 09:02:59;;;;;;;7.35;3.72;;;;;;;22.77;23.59;96062.13;4995393;28;20524;-57
2021/04/10 09:05:49;;;;;;;7.18;3.85;;;;;;;22.79;23.59;96064.53;5007884;28;20531;-57
2021/04/10 09:08:28;;;;;;;5.10;3.55;;;;;;;22.80;23.48;96057.97;5007731;28;20104;-57
2021/04/10 09:10:58;;;;;;;6.15;3.75;;;;;;;22.83;23.36;96071.00;5007325;28;20042;-57
2021/04/10 09:13:25;;;;;;;6.20;3.30;;;;;;;22.83;23.34;96060.91;5007799;28;20137;-57
2021/04/10 09:16:22;;;;;;;6.35;3.47;;;;;;;22.84;23.32;96056.22;5008111;28;20053;-57
2021/04/10 09:19:09;;;;;;;4.97;3.20;;;;;;;22.84;23.50;96054.34;5007034;28;20107;-56
2021/04/10 09:21:46;;;;;;;4.70;3.25;;;;;;;22.89;23.48;96058.88;5007534;28;20049;-57
2021/04/10 09:24:41;;;;;;;5.20;3.03;;;;;;;22.90;23.17;96054.22;5008022;28;20053;-56
2021/04/10 09:27:11;;;;;;;5.68;2.75;;;;;;;22.90;23.06;96044.09;5007289;28;20068;-56
2021/04/10 09:29:42;;;;;;;4.30;2.90;;;;;;;22.91;23.13;96045.72;5007222;28;20116;-57
2021/04/10 09:32:07;;;;;;;6.35;2.92;;;;;;;22.92;23.00;96049.25;5007452;28;20050;-58
2021/04/10 09:34:57;;;;;;;6.00;2.65;;;;;;;22.92;23.08;96054.72;5008553;28;20106;-57
2021/04/10 09:37:22;;;;;;;4.50;2.50;;;;;;;22.93;22.89;96046.22;5007144;28;20034;-57
2021/04/10 09:39:57;;;;;;;4.75;2.67;;;;;;;22.93;23.13;96039.94;5007256;28;20056;-57
2021/04/10 09:42:38;;;;;;;7.68;2.75;;;;;;;22.92;23.08;96041.06;5007553;28;20048;-57
2021/04/10 09:45:05;;;;;;;4.40;2.78;;;;;;;22.94;22.88;96044.28;5007799;28;20096;-57
2021/04/10 09:48:00;;;;;;;3.97;2.35;;;;;;;22.92;22.78;96036.38;5008240;28;20108;-57
2021/04/10 09:50:35;;;;;;;2.92;2.20;;;;;;;22.95;23.07;96038.53;5007669;28;20129;-57
2021/04/10 09:53:08;;;;;;;5.53;2.60;;;;;;;22.97;22.82;96047.22;5007703;28;20053;-57
2021/04/10 09:55:38;;;;;;;2.58;2.03;;;;;;;22.95;22.96;96037.72;4981880;28;755547;-57
2021/04/10 09:58:05;;;;;;;2.00;1.83;;;;;;;22.97;22.96;96047.22;4991555;28;20045;-57
2021/04/10 10:00:41;;;;;;;3.38;2.22;;;;;;;22.97;22.92;96041.75;5008042;28;20065;-57
2021/04/10 10:03:07;;;;;;;3.63;2.38;;;;;;;22.98;22.81;96043.34;4990140;28;20559;-57
2021/04/10 10:05:34;;;;;;;2.90;1.92;;;;;;;22.95;22.70;96044.00;5008834;28;20555;-56
2021/04/10 10:08:07;;;;;;;5.03;2.00;;;;;;;22.98;22.78;96037.91;5008217;28;20603;-57
2021/04/10 10:10:40;;;;;;;1.67;1.50;;;;;;;22.98;22.68;96032.44;5008489;28;20416;-56
2021/04/10 10:13:07;;;;;;;2.20;1.90;;;;;;;22.98;22.91;96037.91;5007547;28;20053;-57
2021/04/10 10:15:33;;;;;;;2.53;1.70;;;;;;;22.95;22.68;96024.88;5008695;28;20042;-56
2021/04/10 10:18:12;;;;;;;1.75;1.65;;;;;;;23.00;22.77;96024.75;5007664;28;20151;-57
2021/04/10 10:20:38;;;;;;;2.40;1.77;;;;;;;22.99;22.51;96025.88;4975554;28;20080;-56
2021/04/10 10:23:16;;;;;;;2.40;1.63;;;;;;;23.00;22.70;96023.94;5008195;28;20524;-57
2021/04/10 10:25:42;;;;;;;2.60;1.90;;;;;;;23.01;22.54;96017.41;4989473;28;20535;-55
2021/04/10 10:28:07;;;;;;;3.38;1.33;;;;;;;23.00;22.46;96013.81;5007399;28;20042;-55
2021/04/10 10:30:35;;;;;;;2.45;1.67;;;;;;;23.01;22.56;96018.22;4973664;28;20516;-55
2021/04/10 10:33:01;;;;;;;1.75;1.60;;;;;;;23.01;22.59;96012.75;5007617;28;20128;-55
2021/04/10 10:35:30;;;;;;;3.58;1.67;;;;;;;23.00;22.54;96016.53;4973062;28;20106;-54
2021/04/10 10:37:56;;;;;;;2.95;1.80;;;;;;;23.00;22.44;96022.00;4986856;28;20103;-55
2021/04/10 10:40:23;;;;;;;1.58;1.48;;;;;;;23.00;22.33;96008.34;4990168;28;20042;-56
2021/04/10 10:43:01;;;;;;;2.67;1.50;;;;;;;23.00;22.59;96019.28;5006891;28;20053;-54
2021/04/10 10:45:45;;;;;;;1.63;1.50;;;;;;;22.98;22.49;96009.78;5006819;28;20123;-55
2021/04/10 10:48:26;;;;;;;2.15;1.48;;;;;;;22.97;22.56;96006.25;5007112;28;20128;-54
2021/04/10 10:51:04;;;;;;;2.00;1.60;;;;;;;22.94;22.57;96004.13;5006740;28;20120;-54
2021/04/10 10:53:34;;;;;;;2.28;1.60;;;;;;;22.97;22.63;96011.72;4989872;28;20095;-54
2021/04/10 10:56:19;;;;;;;2.20;1.17;;;;;;;22.95;22.52;96003.03;5008024;28;20053;-55
2021/04/10 10:58:55;;;;;;;2.20;1.40;;;;;;;22.94;22.60;95995.13;5006467;28;20049;-55
2021/04/10 11:01:24;;;;;;;1.40;1.30;;;;;;;22.92;22.32;95989.16;5006993;28;20153;-56
2021/04/10 11:04:12;;;;;;;1.80;1.50;;;;;;;22.92;22.35;95989.97;4991499;28;20086;-57
2021/04/10 11:06:41;;;;;;;2.00;1.25;;;;;;;22.93;22.48;95988.06;4954164;28;20103;-57
2021/04/10 11:09:08;;;;;;;1.58;1.27;;;;;;;22.91;22.48;95974.72;4987015;28;20046;-57
2021/04/10 11:11:36;;;;;;;1.88;1.20;;;;;;;22.92;22.63;95975.50;4954637;28;20189;-57
2021/04/10 11:14:02;;;;;;;1.38;1.23;;;;;;;22.91;22.47;95971.97;4988357;28;20049;-57
2021/04/10 11:16:27;;;;;;;1.50;1.40;;;;;;;22.90;22.27;95970.34;4969796;28;20042;-57
2021/04/10 11:18:54;;;;;;;1.55;1.20;;;;;;;22.90;22.37;95964.09;4969368;28;20034;-57
2021/04/10 11:21:38;;;;;;;0.90;0.90;;;;;;;22.88;22.54;95956.19;4987688;28;20491;-57
2021/04/10 11:24:11;;;;;;;1.77;1.27;;;;;;;22.89;22.48;95957.81;4987475;28;20042;-57
2021/04/10 11:26:44;;;;;;;1.25;1.05;;;;;;;22.88;22.33;95948.00;4987118;28;20077;-57
2021/04/10 11:29:15;;;;;;;0.95;0.90;;;;;;;22.87;22.57;95944.47;4986990;28;20145;-57
2021/04/10 11:31:41;;;;;;;1.23;1.15;;;;;;;22.89;22.43;95943.38;4986933;28;20054;-56
2021/04/10 11:34:26;;;;;;;1.25;1.15;;;;;;;22.86;22.62;95939.31;4986228;28;20535;-56
2021/04/10 11:36:52;;;;;;;;;;;;;;;22.86;22.51;95931.94;4987290;28;20136;-58
2021/04/10 11:39:17;;;;;;;1.08;1.00;;;;;;;22.85;22.33;95943.97;4987125;28;20372;-58
2021/04/10 11:41:49;;;;;;;0.93;0.90;;;;;;;22.84;22.60;95931.44;4986631;28;20042;-57
2021/04/10 11:44:15;;;;;;;0.98;0.80;;;;;;;22.83;22.52;95931.75;4987042;28;20439;-57